Flight Track Log - Related Links

Times and Time Zones

All times are in EDT time to prevent confusion due to time zone crossing. See the LKF61 flight status page for this flight to view local times or setup timezone preferences in your user account.

Time Position Orientation Groundspeed Altitude Reporting Facility
EDT Latitude Longitude Course Direction KTS MPH feet Rate Location/Type
Fri 12:44:27 PM 32.0497 -81.1131 196° South 282 325 7,300  Level Jacksonville Center
Fri 12:45:26 PM 31.9872 -81.1339 196° South 288 331 9,500 2,218 Climbing Jacksonville Center
Fri 12:46:26 PM 31.9083 -81.1600 196° South 294 338 11,700 2,529 Climbing Jacksonville Center
Fri 12:47:27 PM 31.8086 -81.1936 196° South 318 366 14,600 2,650 Climbing Jacksonville Center
Fri 12:48:26 PM 31.7108 -81.2247 195° South 362 417 17,000 2,319 Climbing Jacksonville Center
Fri 12:49:26 PM 31.6194 -81.2581 197° South 376 433 19,200 2,430 Climbing Jacksonville Center
Fri 12:50:27 PM 31.5050 -81.2942 195° South 383 441 21,900 2,550 Climbing Jacksonville Center
Fri 12:51:26 PM 31.4114 -81.3250 196° South 388 447 24,300 1,916 Climbing Jacksonville Center
Fri 12:52:26 PM 31.3247 -81.3969 215° Southwest 377 434 25,700 843 Climbing Jacksonville Center
Fri 12:53:27 PM 31.2381 -81.4808 220° Southwest 390 449 26,000 150 Climbing Jacksonville Center
Fri 12:54:26 PM 31.1469 -81.5744 221° Southwest 422 486 26,000 303 Level Jacksonville Center
Fri 12:55:26 PM 31.0417 -81.6778 220° Southwest 452 520 26,600 1,050 Climbing Jacksonville Center
Fri 12:56:26 PM 30.9483 -81.7661 219° Southwest 447 514 28,100 1,400 Climbing Jacksonville Center
Fri 12:57:26 PM 30.8467 -81.8400 212° Southwest 447 514 29,400 900 Climbing Jacksonville Center
Fri 12:58:26 PM 30.7325 -81.8944 202° Southwest 438 504 29,900 300 Climbing Jacksonville Center
Fri 12:59:26 PM 30.6097 -81.9464 200° South 451 519 30,000 200 Climbing Jacksonville Center
Fri 01:00:26 PM 30.5014 -81.9908 199° South 463 533 30,300 1,100 Climbing Jacksonville Center
Fri 01:01:26 PM 30.3847 -82.0400 200° South 463 533 32,200 1,636 Climbing Jacksonville Center
Fri 01:02:27 PM 30.2703 -82.0917 201° Southwest 452 520 33,600 1,200 Climbing Jacksonville Center
Fri 01:03:26 PM 30.1450 -82.1144 189° South 447 514 34,600 706 Climbing Jacksonville Center
Fri 01:04:26 PM 29.9925 -82.0964 174° South 476 548 35,000 198 Climbing Jacksonville Center
Fri 01:05:27 PM 29.8442 -82.0689 171° South 505 581 35,000  Level Jacksonville Center
Fri 01:06:26 PM 29.7125 -82.0342 167° South 534 615 35,000  Level Jacksonville Center
Fri 01:07:26 PM 29.5642 -82.0092 172° South 539 620 35,000  Level Jacksonville Center
Fri 01:08:27 PM 29.4178 -81.9794 170° South 545 627 35,000 -650 Level Jacksonville Center
Fri 01:09:26 PM 29.2672 -81.9522 171° South 545 627 33,700 -1,387 Descending Jacksonville Center
Fri 01:11:20 PM 28.9819 -81.8953 170° South 552 635 31,000 -1,483 Descending Miami Center
Fri 01:12:20 PM 28.8203 -81.8642 170° South 547 629 29,400 -1,550 Descending Miami Center
Fri 01:13:20 PM 28.6881 -81.8344 169° South 540 621 27,900 -1,200 Descending Miami Center
Fri 01:14:20 PM 28.5408 -81.8092 171° South 540 621 27,000 -450 Descending Miami Center
Fri 01:15:20 PM 28.4044 -81.7678 165° South 535 616 27,000 -450 Level Miami Center
Fri 01:16:20 PM 28.2661 -81.7286 166° South 524 603 26,100 -1,050 Descending Miami Center
Fri 01:17:20 PM 28.1233 -81.6894 166° South 524 603 24,900 -1,050 Descending Miami Center
Fri 01:18:20 PM 27.9900 -81.6861 179° South 524 603 24,000 -850 Descending Miami Center
Fri 01:19:20 PM 27.8614 -81.7231 194° South 478 550 23,200 -1,100 Descending Miami Center
Fri 01:20:20 PM 27.7356 -81.7433 188° South 478 550 21,800 -1,300 Descending Miami Center
Fri 01:21:20 PM 27.6075 -81.7006 164° South 463 533 20,600 -1,700 Descending Miami Center
Fri 01:22:20 PM 27.4758 -81.6506 161° South 458 527 18,400 3,200 Descending Miami Center
Fri 01:23:20 PM 27.3581 -81.6081 162° South 453 521 27,000 -2,150 Climbing Miami Center
Fri 01:24:20 PM 27.2467 -81.5708 163° South 441 507 14,100 -7,400 Descending Miami Center
Fri 01:25:20 PM 27.1519 -81.5319 160° South 412 474 12,200 -2,000 Descending Miami Center
Fri 01:26:20 PM 27.0364 -81.4925 163° South 396 456 10,100 -1,100 Descending Miami Center
Fri 01:27:20 PM 26.9603 -81.4567 157° South 377 434 10,000 -50 Descending Miami Center
Fri 01:28:20 PM 26.8492 -81.4011 156° South 372 428 10,000 -400 Level Miami Center
Fri 01:29:20 PM 26.7639 -81.3933 175° South 334 384 9,200 -950 Descending Miami Center
Fri 01:30:20 PM 26.6844 -81.3947 181° South 299 344 8,100 -600 Descending Miami Center
Fri 01:31:20 PM 26.6072 -81.3989 183° South 287 330 8,000 -50 Descending Miami Center
Fri 01:32:20 PM 26.5275 -81.4028 182° South 287 330 8,000  Level Miami Center
Fri 01:33:20 PM 26.4517 -81.4275 196° South 287 330 8,000  Level Miami Center
Fri 01:35:00 PM 26.2807 -81.5122 233° Southwest  Level FlightAware Approximate
Fri 01:42:00 PM 26.1500 -81.7667 246° West  Level FlightAware Approximate
Fri 01:43:00 PM 26.1524 -81.7756 246° West  Level Estimated
Fri 01:44:00 PM 26.1524 -81.7756 246° West  Level Estimated
Fri 01:45:00 PM 26.1524 -81.7756 246° West  Level Estimated
Fri 01:46:00 PM 26.1524 -81.7756 246° West  Level Estimated
Fri 01:47:00 PM 26.1524 -81.7756 246° West  Level Estimated
Fri 01:48:00 PM 26.1524 -81.7756 246° West  Level Estimated
Fri 01:49:00 PM 26.1524 -81.7756 246° West  Level Estimated
Fri 01:50:00 PM 26.1524 -81.7756 246° West  Level Estimated
Fri 01:51:00 PM 26.1524 -81.7756 246° West  Level Estimated
Fri 01:52:00 PM 26.1524 -81.7756 246° West  Level Estimated
Fri 01:53:00 PM 26.1524 -81.7756 246° West  Level Estimated

Login

Don't have an account? Register now (free) for customized features, flight alerts, and more!